Overview Statistics Trail Chart Weather Telemetry Raw packets
 

This is the latest recevied weather packets stored in our database for station/object KD2FKI. If no packets are shown the sender has not sent any weather packets the latest 10 day(s).

<< 36 37 38 39 >>
Time Temp. Humidity Pressure Rain* Wind** Luminosity Snow
1787853930 36.11° C 48% - 0 mm - - -
1787853328 35.56° C 49% - 0 mm - - -
1787852726 35° C 50% - 0 mm - - -
1787852123 35.56° C 49% - 0 mm - - -
1787851521 34.44° C 52% - 0 mm - - -
1787850921 35° C 51% - 0 mm - - -
1787850335 34.44° C 52% - 0 mm - - -
1787849733 33.89° C 54% - 0 mm - - -
1787849130 33.89° C 55% - 0 mm - - -
1787848529 32.78° C 56% - 0 mm - - -
1787847929 31.11° C 60% - 0 mm - - -
1787847326 30.56° C 61% - 0 mm - - -
1787846721 31.11° C 61% - 0 mm - - -
1787846119 31.11° C 60% - 0 mm - - -
1787845535 30.56° C 61% - 0 mm - - -
1787844933 30.56° C 62% - 0 mm - - -
1787844330 29.44° C 64% - 0 mm - - -
1787843728 28.89° C 66% - 0 mm - - -
1787843127 27.78° C 68% - 0 mm - - -
1787842526 28.33° C 67% - 0 mm - - -
1787841921 27.78° C 68% - 0 mm - - -
1787841319 27.78° C 69% - 0 mm - - -
1787840735 27.22° C 69% - 0 mm - - -
1787633146 17.22° C 78% - 0 mm - - -
1787632534 17.78° C 78% - 0 mm - - -

* Rain latest hour (hover to see other rain measurements)
** Current wind speed in m/s (hover to see current wind gust speed)